createdAt,value
2018-05-07T00:00:03.169Z,95.10
2018-05-07T00:02:30.716Z,95.20
2018-05-07T00:04:58.287Z,95.90
2018-05-07T00:07:25.802Z,95.80
2018-05-07T00:09:53.344Z,96.20
2018-05-07T00:12:20.878Z,96.20
2018-05-07T00:14:48.406Z,96.30
2018-05-07T00:17:15.925Z,96.30
2018-05-07T00:19:44.945Z,96.70
2018-05-07T00:22:12.490Z,96.70
2018-05-07T00:24:39.992Z,96.70
2018-05-07T00:27:07.508Z,96.60
2018-05-07T00:29:35.035Z,96.50
2018-05-07T00:32:02.568Z,96.70
2018-05-07T00:34:30.075Z,96.70
2018-05-07T00:36:57.647Z,96.90
2018-05-07T00:39:25.155Z,96.80
2018-05-07T00:41:52.685Z,96.80
2018-05-07T00:44:20.223Z,96.90
2018-05-07T00:46:47.725Z,96.90
2018-05-07T00:49:16.047Z,97.00
2018-05-07T00:51:43.581Z,97.00
2018-05-07T00:54:11.105Z,97.00
2018-05-07T00:56:38.665Z,97.20
2018-05-07T00:59:06.234Z,97.10
2018-05-07T01:01:34.510Z,97.40
2018-05-07T01:04:02.009Z,97.40
2018-05-07T01:06:29.537Z,97.40
2018-05-07T01:08:57.844Z,97.20
2018-05-07T01:11:25.421Z,97.20
2018-05-07T01:13:52.945Z,97.30
2018-05-07T01:16:21.214Z,97.70
2018-05-07T01:18:49.517Z,97.90
2018-05-07T01:21:17.038Z,97.90
2018-05-07T01:23:45.323Z,98.40
2018-05-07T01:26:12.875Z,98.30
2018-05-07T01:28:40.400Z,98.20
2018-05-07T01:31:07.973Z,98.30
2018-05-07T01:33:35.497Z,98.50
2018-05-07T01:36:03.023Z,98.70
2018-05-07T01:38:31.328Z,98.90
2018-05-07T01:40:58.841Z,98.90
2018-05-07T01:43:26.342Z,98.90
2018-05-07T01:45:54.647Z,98.90
2018-05-07T01:48:22.187Z,98.90
2018-05-07T01:50:49.716Z,98.80
2018-05-07T01:53:17.222Z,98.80
2018-05-07T01:55:44.759Z,99.10
2018-05-07T01:58:13.039Z,98.80
2018-05-07T02:00:40.550Z,98.80
2018-05-07T02:03:08.088Z,98.70
2018-05-07T02:05:35.637Z,98.70
2018-05-07T02:08:03.948Z,98.80
2018-05-07T02:10:31.456Z,98.70
2018-05-07T02:12:59.005Z,98.70
2018-05-07T02:15:26.514Z,98.80
2018-05-07T02:17:54.063Z,98.70
2018-05-07T02:20:21.601Z,98.60
2018-05-07T02:22:49.873Z,98.70
2018-05-07T02:25:18.182Z,98.70
2018-05-07T02:27:45.701Z,98.60
2018-05-07T02:30:13.205Z,98.60
2018-05-07T02:32:40.720Z,98.60
2018-05-07T02:35:08.302Z,98.60
2018-05-07T02:37:35.845Z,98.50
2018-05-07T02:40:03.793Z,98.60
2018-05-07T02:42:31.324Z,98.60
2018-05-07T02:44:58.834Z,98.50
2018-05-07T02:47:27.101Z,98.50
2018-05-07T02:49:54.646Z,98.50
2018-05-07T02:52:22.150Z,98.40
2018-05-07T02:54:49.673Z,98.20
2018-05-07T02:57:17.217Z,98.30
2018-05-07T02:59:44.723Z,98.20
2018-05-07T03:02:12.251Z,98.40
2018-05-07T03:04:39.817Z,98.40
2018-05-07T03:07:07.340Z,98.50
2018-05-07T03:09:34.859Z,98.40
2018-05-07T03:12:02.456Z,98.40
2018-05-07T03:14:30.453Z,98.40
2018-05-07T03:16:57.989Z,98.40
2018-05-07T03:19:25.523Z,98.60
2018-05-07T03:21:53.840Z,98.80
2018-05-07T03:24:21.357Z,98.70
2018-05-07T03:26:48.925Z,98.80
2018-05-07T03:29:16.448Z,98.80
2018-05-07T03:31:43.959Z,98.80
2018-05-07T03:34:11.549Z,98.90
2018-05-07T03:36:39.062Z,98.90
2018-05-07T03:39:06.583Z,99.00
2018-05-07T03:41:34.218Z,99.10
2018-05-07T03:44:01.731Z,99.10
2018-05-07T03:46:29.265Z,99.30
2018-05-07T03:48:56.796Z,99.20
2018-05-07T03:51:24.295Z,99.00
2018-05-07T03:53:51.810Z,99.10
2018-05-07T03:56:20.131Z,99.00
2018-05-07T03:58:47.681Z,99.00
2018-05-07T04:01:15.202Z,98.90
2018-05-07T04:03:42.778Z,99.00
2018-05-07T04:06:10.270Z,99.10
2018-05-07T04:08:37.807Z,99.30
2018-05-07T04:11:05.338Z,99.40
2018-05-07T04:13:32.853Z,99.40
2018-05-07T04:16:00.359Z,99.50
2018-05-07T04:18:39.767Z,99.30
2018-05-07T04:21:12.892Z,99.40
2018-05-07T04:23:52.043Z,99.50
2018-05-07T04:26:20.386Z,99.40
2018-05-07T04:28:47.923Z,99.40
2018-05-07T04:31:15.444Z,99.70
2018-05-07T04:33:43.063Z,99.10
2018-05-07T04:36:10.530Z,99.40
2018-05-07T04:38:38.816Z,99.40
2018-05-07T04:41:06.333Z,99.40
2018-05-07T04:43:33.848Z,99.30
2018-05-07T04:46:02.124Z,99.30
2018-05-07T04:48:29.670Z,99.20
2018-05-07T04:50:57.187Z,99.30
2018-05-07T04:53:24.700Z,99.40
2018-05-07T04:55:52.270Z,99.30
2018-05-07T04:58:19.811Z,99.00
2018-05-07T05:00:48.085Z,98.90
2018-05-07T05:03:16.381Z,98.80
2018-05-07T05:05:43.934Z,98.70
2018-05-07T05:08:11.483Z,99.00
2018-05-07T05:10:39.945Z,98.80
2018-05-07T05:13:08.253Z,98.40
2018-05-07T05:15:35.766Z,98.40
2018-05-07T05:18:03.310Z,98.30
2018-05-07T05:20:30.849Z,98.20
2018-05-07T05:22:58.374Z,98.30
2018-05-07T05:25:26.810Z,98.10
2018-05-07T05:27:54.416Z,98.10
2018-05-07T05:30:21.939Z,97.60
2018-05-07T05:32:49.452Z,97.90
2018-05-07T05:35:16.999Z,97.60
2018-05-07T05:37:44.506Z,97.90
2018-05-07T05:40:12.022Z,97.30
2018-05-07T05:42:39.569Z,97.30
2018-05-07T05:45:07.897Z,97.00
2018-05-07T05:47:35.454Z,97.00
2018-05-07T05:50:03.014Z,97.10
2018-05-07T05:52:30.516Z,96.80
2018-05-07T05:54:58.060Z,97.20
2018-05-07T05:57:25.568Z,96.40
2018-05-07T05:59:53.839Z,96.70
2018-05-07T06:02:21.378Z,96.70
2018-05-07T06:04:48.906Z,96.20
2018-05-07T06:07:16.421Z,95.80
2018-05-07T06:09:43.954Z,95.20
2018-05-07T06:12:11.486Z,95.00
2018-05-07T06:14:39.074Z,95.30
2018-05-07T06:17:06.539Z,95.10
2018-05-07T06:19:34.074Z,95.60
2018-05-07T06:22:02.374Z,94.20
2018-05-07T06:24:29.983Z,94.20
2018-05-07T06:26:57.494Z,95.00
2018-05-07T06:29:24.997Z,94.00
2018-05-07T06:31:53.339Z,93.00
2018-05-07T06:34:20.881Z,93.00
2018-05-07T06:36:48.378Z,92.80
2018-05-07T06:39:15.919Z,93.00
2018-05-07T06:41:43.451Z,92.20
2018-05-07T06:44:10.974Z,91.90
2018-05-07T06:46:38.511Z,91.50
2018-05-07T06:49:06.503Z,92.00
2018-05-07T06:51:34.777Z,90.90
2018-05-07T06:54:02.315Z,90.80
2018-05-07T06:56:29.859Z,91.40
2018-05-07T06:58:57.361Z,90.80
2018-05-07T07:01:25.663Z,90.80
2018-05-07T07:03:53.218Z,90.80
2018-05-07T07:06:20.721Z,89.80
2018-05-07T07:08:48.263Z,90.20
2018-05-07T07:11:15.782Z,91.00
2018-05-07T07:13:44.051Z,89.40
2018-05-07T07:16:11.613Z,89.30
2018-05-07T07:18:39.178Z,90.30
2018-05-07T07:21:06.739Z,89.30
2018-05-07T07:23:35.030Z,87.90
2018-05-07T07:26:02.556Z,87.70
2018-05-07T07:28:30.070Z,87.10
2018-05-07T07:30:57.602Z,87.40
2018-05-07T07:33:25.866Z,84.90
2018-05-07T07:35:53.412Z,84.70
2018-05-07T07:38:20.956Z,86.40
2018-05-07T07:40:48.454Z,86.90
2018-05-07T07:43:16.740Z,86.30
2018-05-07T07:45:45.118Z,84.80
2018-05-07T07:48:13.396Z,83.40
2018-05-07T07:50:40.907Z,83.20
2018-05-07T07:53:08.445Z,85.20
2018-05-07T07:55:36.720Z,85.00
2018-05-07T07:58:04.224Z,85.00
2018-05-07T08:00:31.761Z,83.10
2018-05-07T08:03:00.152Z,83.40
2018-05-07T08:05:27.646Z,82.20
2018-05-07T08:07:55.181Z,81.90
2018-05-07T08:10:22.746Z,81.80
2018-05-07T08:12:50.261Z,82.90
2018-05-07T08:15:17.789Z,80.80
2018-05-07T08:17:45.296Z,81.80
2018-05-07T08:20:12.798Z,80.00
2018-05-07T08:22:41.116Z,79.50
2018-05-07T08:25:08.676Z,79.40
2018-05-07T08:27:36.187Z,78.60
2018-05-07T08:30:03.719Z,78.10
2018-05-07T08:32:31.238Z,76.30
2018-05-07T08:34:59.505Z,78.70
2018-05-07T08:37:27.838Z,78.70
2018-05-07T08:39:55.337Z,78.60
2018-05-07T08:42:23.728Z,76.00
2018-05-07T08:44:51.190Z,76.00
2018-05-07T08:47:19.462Z,75.40
2018-05-07T08:49:47.002Z,75.40
2018-05-07T08:52:14.515Z,74.90
2018-05-07T08:54:42.816Z,72.30
2018-05-07T08:57:10.377Z,72.10
2018-05-07T08:59:37.894Z,71.10
2018-05-07T09:02:05.441Z,73.00
2018-05-07T09:04:33.721Z,70.10
2018-05-07T09:07:01.263Z,70.10
2018-05-07T09:09:28.761Z,70.40
2018-05-07T09:11:56.262Z,65.60
2018-05-07T09:14:23.854Z,65.90
2018-05-07T09:16:52.164Z,60.60
2018-05-07T09:19:19.671Z,60.70
2018-05-07T09:21:47.266Z,59.40
2018-05-07T09:24:14.803Z,64.90
2018-05-07T09:26:42.316Z,62.80
2018-05-07T09:29:09.844Z,59.30
2018-05-07T09:31:37.407Z,63.70
2018-05-07T09:34:04.919Z,60.80
2018-05-07T09:36:32.425Z,59.20
2018-05-07T09:39:00.746Z,60.20
2018-05-07T09:41:28.257Z,60.00
2018-05-07T09:43:56.533Z,55.70
2018-05-07T09:46:24.153Z,55.60
2018-05-07T09:48:51.699Z,55.90
2018-05-07T09:51:19.265Z,59.60
2018-05-07T09:53:46.763Z,56.00
2018-05-07T09:56:14.309Z,54.00
2018-05-07T09:58:53.698Z,53.30
2018-05-07T10:01:21.954Z,51.80
2018-05-07T10:03:49.469Z,51.80
2018-05-07T10:06:16.984Z,50.90
2018-05-07T10:08:45.258Z,47.10
2018-05-07T10:11:13.569Z,49.60
2018-05-07T10:13:41.114Z,49.60
2018-05-07T10:16:08.650Z,46.70
2018-05-07T10:18:36.927Z,49.60
2018-05-07T10:21:04.517Z,48.50
2018-05-07T10:23:32.807Z,46.20
2018-05-07T10:26:00.322Z,46.80
2018-05-07T10:28:27.874Z,43.30
2018-05-07T10:30:55.391Z,44.10
2018-05-07T10:33:22.950Z,42.80
2018-05-07T10:35:50.476Z,42.10
2018-05-07T10:38:18.762Z,43.20
2018-05-07T10:40:46.267Z,43.00
2018-05-07T10:43:13.810Z,42.80
2018-05-07T10:45:41.312Z,43.80
2018-05-07T10:48:08.831Z,42.10
2018-05-07T10:50:36.359Z,38.20
2018-05-07T10:53:03.867Z,39.20
2018-05-07T10:55:31.371Z,40.60
2018-05-07T10:57:59.954Z,42.00
2018-05-07T11:00:28.238Z,41.70
2018-05-07T11:02:56.528Z,40.40
2018-05-07T11:05:24.810Z,41.90
2018-05-07T11:07:52.334Z,41.90
2018-05-07T11:10:19.883Z,43.80
2018-05-07T11:12:47.407Z,41.00
2018-05-07T11:15:14.919Z,42.60
2018-05-07T11:17:42.430Z,42.10
2018-05-07T11:20:09.957Z,38.10
2018-05-07T11:22:38.222Z,40.30
2018-05-07T11:25:05.733Z,40.20
2018-05-07T11:27:33.265Z,41.50
2018-05-07T11:30:01.562Z,41.80
2018-05-07T11:32:29.086Z,41.80
2018-05-07T11:34:57.392Z,43.20
2018-05-07T11:37:24.904Z,43.20
2018-05-07T11:39:52.397Z,43.70
2018-05-07T11:42:20.719Z,40.10
2018-05-07T11:44:48.364Z,40.00
2018-05-07T11:47:15.875Z,40.40
2018-05-07T11:49:43.400Z,41.40
2018-05-07T11:52:10.924Z,42.00
2018-05-07T11:54:39.264Z,40.60
2018-05-07T11:57:06.798Z,40.70
2018-05-07T11:59:34.319Z,40.00
2018-05-07T12:02:02.627Z,38.50
2018-05-07T12:04:30.159Z,38.50
2018-05-07T12:06:58.426Z,38.40
2018-05-07T12:09:26.723Z,38.50
2018-05-07T12:11:54.243Z,38.40
2018-05-07T12:14:21.756Z,36.70
2018-05-07T12:16:50.044Z,37.40
2018-05-07T12:19:17.622Z,37.30
2018-05-07T12:21:45.144Z,39.30
2018-05-07T12:24:12.678Z,40.00
2018-05-07T12:26:40.262Z,37.10
2018-05-07T12:29:08.532Z,36.80
2018-05-07T12:31:36.249Z,36.60
2018-05-07T12:34:04.512Z,36.30
2018-05-07T12:36:32.023Z,37.60
2018-05-07T12:38:59.545Z,38.60
2018-05-07T12:41:27.050Z,37.80
2018-05-07T12:43:54.607Z,38.00
2018-05-07T12:46:22.959Z,36.10
2018-05-07T12:48:50.453Z,36.00
2018-05-07T12:51:18.740Z,36.20
2018-05-07T12:53:47.019Z,36.50
2018-05-07T12:56:14.522Z,36.50
2018-05-07T12:58:42.144Z,36.40
2018-05-07T13:01:09.659Z,35.40
2018-05-07T13:03:37.202Z,36.10
2018-05-07T13:06:04.735Z,36.10
2018-05-07T13:08:32.267Z,36.60
2018-05-07T13:11:00.552Z,38.50
2018-05-07T13:13:28.058Z,38.50
2018-05-07T13:15:55.562Z,36.40
2018-05-07T13:18:23.879Z,38.20
2018-05-07T13:20:51.394Z,38.10
2018-05-07T13:23:18.911Z,38.50
2018-05-07T13:25:46.458Z,38.30
2018-05-07T13:28:13.974Z,38.20
2018-05-07T13:30:41.518Z,37.80
2018-05-07T13:33:09.035Z,38.10
2018-05-07T13:35:36.543Z,38.10
2018-05-07T13:38:04.092Z,36.40
2018-05-07T13:40:31.619Z,36.20
2018-05-07T13:42:59.118Z,36.40
2018-05-07T13:45:26.649Z,37.60
2018-05-07T13:47:54.929Z,37.40
2018-05-07T13:50:22.443Z,37.40
2018-05-07T13:52:50.027Z,37.00
2018-05-07T13:55:17.558Z,38.30
2018-05-07T13:57:45.077Z,36.60
2018-05-07T14:00:12.706Z,37.00
2018-05-07T14:02:40.228Z,36.90
2018-05-07T14:05:07.743Z,37.40
2018-05-07T14:07:35.402Z,36.80
2018-05-07T14:10:02.947Z,36.90
2018-05-07T14:12:30.447Z,38.80
2018-05-07T14:14:57.986Z,39.80
2018-05-07T14:17:26.271Z,39.20
2018-05-07T14:19:53.773Z,39.10
2018-05-07T14:22:21.320Z,38.70
2018-05-07T14:24:48.845Z,38.90
2018-05-07T14:27:16.416Z,39.00
2018-05-07T14:29:44.153Z,39.20
2018-05-07T14:32:11.700Z,41.00
2018-05-07T14:34:40.063Z,39.00
2018-05-07T14:37:07.734Z,38.90
2018-05-07T14:39:35.256Z,40.50
2018-05-07T14:42:02.757Z,39.00
2018-05-07T14:44:31.124Z,38.80
2018-05-07T14:46:58.706Z,38.70
2018-05-07T14:49:26.423Z,38.90
2018-05-07T14:51:54.016Z,38.90
2018-05-07T14:54:21.541Z,37.60
2018-05-07T14:56:49.073Z,38.50
2018-05-07T14:59:16.753Z,39.20
2018-05-07T15:01:44.272Z,38.90
2018-05-07T15:04:12.607Z,39.30
2018-05-07T15:06:40.127Z,39.30
2018-05-07T15:09:08.427Z,39.10
2018-05-07T15:11:35.956Z,39.00
2018-05-07T15:14:15.892Z,40.20
2018-05-07T15:16:44.195Z,41.70
2018-05-07T15:19:11.715Z,41.70
2018-05-07T15:21:39.218Z,42.60
2018-05-07T15:24:06.754Z,40.60
2018-05-07T15:26:35.056Z,42.20
2018-05-07T15:29:02.591Z,41.50
2018-05-07T15:31:30.144Z,41.50
2018-05-07T15:33:57.679Z,41.60
2018-05-07T15:36:25.346Z,42.30
2018-05-07T15:38:53.643Z,43.70
2018-05-07T15:41:21.182Z,43.70
2018-05-07T15:43:48.744Z,45.80
2018-05-07T15:46:16.268Z,44.10
2018-05-07T15:48:43.815Z,44.20
2018-05-07T15:51:11.539Z,44.00
2018-05-07T15:53:39.098Z,43.50
2018-05-07T15:56:06.690Z,44.70
2018-05-07T15:58:34.229Z,44.20
2018-05-07T16:01:01.840Z,44.10
2018-05-07T16:03:29.399Z,45.00
2018-05-07T16:05:57.777Z,45.10
2018-05-07T16:08:25.352Z,45.20
2018-05-07T16:10:52.897Z,45.80
2018-05-07T16:13:20.416Z,45.40
2018-05-07T16:15:47.954Z,44.70
2018-05-07T16:18:15.518Z,44.50
2018-05-07T16:20:43.160Z,44.50
2018-05-07T16:23:10.623Z,45.20
2018-05-07T16:25:38.150Z,45.90
2018-05-07T16:28:06.524Z,45.30
2018-05-07T16:30:33.982Z,45.20
2018-05-07T16:33:01.506Z,45.50
2018-05-07T16:35:29.031Z,45.10
2018-05-07T16:37:56.937Z,45.50
2018-05-07T16:40:24.445Z,45.10
2018-05-07T16:42:52.042Z,45.60
2018-05-07T16:45:19.561Z,45.70
2018-05-07T16:47:47.090Z,45.20
2018-05-07T16:50:14.615Z,45.40
2018-05-07T16:52:42.150Z,45.60
2018-05-07T16:55:09.655Z,46.30
2018-05-07T16:57:37.179Z,44.80
2018-05-07T17:00:04.699Z,45.10
2018-05-07T17:02:32.233Z,46.00
2018-05-07T17:04:59.762Z,45.60
2018-05-07T17:07:27.275Z,45.50
2018-05-07T17:09:54.806Z,44.80
2018-05-07T17:12:22.354Z,44.60
2018-05-07T17:14:49.867Z,45.50
2018-05-07T17:17:17.407Z,45.00
2018-05-07T17:19:44.932Z,45.90
2018-05-07T17:22:12.479Z,46.80
2018-05-07T17:24:39.991Z,46.10
2018-05-07T17:27:08.258Z,45.10
2018-05-07T17:29:35.777Z,45.30
2018-05-07T17:32:03.278Z,45.20
2018-05-07T17:34:30.939Z,45.30
2018-05-07T17:36:58.526Z,46.10
2018-05-07T17:39:26.033Z,45.50
2018-05-07T17:41:53.698Z,46.20
2018-05-07T17:44:32.856Z,46.20
2018-05-07T17:47:12.110Z,46.00
2018-05-07T17:49:39.623Z,46.50
2018-05-07T17:52:07.877Z,46.50
2018-05-07T17:54:35.457Z,45.90
2018-05-07T17:57:02.971Z,46.60
2018-05-07T17:59:30.485Z,46.70
2018-05-07T18:01:58.021Z,47.30
2018-05-07T18:04:25.573Z,47.50
2018-05-07T18:06:53.075Z,48.10
2018-05-07T18:09:20.603Z,48.50
2018-05-07T18:11:48.875Z,49.10
2018-05-07T18:14:16.413Z,49.10
2018-05-07T18:16:43.971Z,50.00
2018-05-07T18:19:11.583Z,50.80
2018-05-07T18:21:39.092Z,51.20
2018-05-07T18:24:06.654Z,50.90
2018-05-07T18:26:34.259Z,54.10
2018-05-07T18:29:01.710Z,54.70
2018-05-07T18:31:29.253Z,56.10
2018-05-07T18:33:57.555Z,55.50
2018-05-07T18:36:25.059Z,55.50
2018-05-07T18:38:52.569Z,56.10
2018-05-07T18:41:20.099Z,58.00
2018-05-07T18:43:47.613Z,59.70
2018-05-07T18:46:15.173Z,62.60
2018-05-07T18:48:42.674Z,66.60
2018-05-07T18:51:10.254Z,76.50
2018-05-07T18:53:37.762Z,79.30
2018-05-07T18:56:05.273Z,79.60
2018-05-07T18:58:32.813Z,78.40
2018-05-07T19:01:00.320Z,78.20
2018-05-07T19:03:27.882Z,80.10
2018-05-07T19:05:55.464Z,84.00
2018-05-07T19:08:22.971Z,83.00
2018-05-07T19:10:51.047Z,84.90
2018-05-07T19:13:18.599Z,86.70
2018-05-07T19:15:46.123Z,87.80
2018-05-07T19:18:13.645Z,88.80
2018-05-07T19:20:41.186Z,88.00
2018-05-07T19:23:08.763Z,87.40
2018-05-07T19:25:37.079Z,87.70
2018-05-07T19:28:05.457Z,87.70
2018-05-07T19:30:33.011Z,87.90
2018-05-07T19:33:00.522Z,87.40
2018-05-07T19:35:28.835Z,89.30
2018-05-07T19:37:56.362Z,88.90
2018-05-07T19:40:23.882Z,89.80
2018-05-07T19:42:51.562Z,90.30
2018-05-07T19:45:19.094Z,90.20
2018-05-07T19:47:46.665Z,90.60
2018-05-07T19:50:14.970Z,90.40
2018-05-07T19:52:42.503Z,90.30
2018-05-07T19:55:10.016Z,90.30
2018-05-07T19:57:38.400Z,90.90
2018-05-07T20:00:06.701Z,90.80
2018-05-07T20:02:34.226Z,90.80
2018-05-07T20:05:01.763Z,91.20
2018-05-07T20:07:29.262Z,90.90
2018-05-07T20:09:56.794Z,90.80
2018-05-07T20:12:24.453Z,91.10
2018-05-07T20:14:52.265Z,90.80
2018-05-07T20:17:19.786Z,91.20
2018-05-07T20:19:47.321Z,90.80
2018-05-07T20:22:14.866Z,90.80
2018-05-07T20:24:42.415Z,91.20
2018-05-07T20:27:09.958Z,91.10
2018-05-07T20:29:38.247Z,91.60
2018-05-07T20:32:05.789Z,91.60
2018-05-07T20:34:34.118Z,91.70
2018-05-07T20:37:01.712Z,91.70
2018-05-07T20:39:29.235Z,91.80
2018-05-07T20:41:56.807Z,91.70
2018-05-07T20:44:24.360Z,91.60
2018-05-07T20:46:51.885Z,91.90
2018-05-07T20:49:20.326Z,92.00
2018-05-07T20:51:47.813Z,92.00
2018-05-07T20:54:15.329Z,92.00
2018-05-07T20:56:42.888Z,92.40
2018-05-07T20:59:10.444Z,92.50
2018-05-07T21:01:37.969Z,92.30
2018-05-07T21:04:05.729Z,92.60
2018-05-07T21:06:33.241Z,92.70
2018-05-07T21:09:00.746Z,92.70
2018-05-07T21:11:29.056Z,93.10
2018-05-07T21:13:56.561Z,93.00
2018-05-07T21:16:24.069Z,93.00
2018-05-07T21:18:51.611Z,93.00
2018-05-07T21:21:19.208Z,92.90
2018-05-07T21:23:46.728Z,93.10
2018-05-07T21:26:15.033Z,93.10
2018-05-07T21:28:42.535Z,93.10
2018-05-07T21:31:10.042Z,92.80
2018-05-07T21:33:37.574Z,93.20
2018-05-07T21:36:05.072Z,93.40
2018-05-07T21:38:32.623Z,93.60
2018-05-07T21:41:00.138Z,93.50
2018-05-07T21:43:27.665Z,93.40
2018-05-07T21:45:55.169Z,93.20
2018-05-07T21:48:22.723Z,93.30
2018-05-07T21:50:50.252Z,93.30
2018-05-07T21:53:17.757Z,93.00
2018-05-07T21:55:45.319Z,93.30
2018-05-07T21:58:12.849Z,93.30
2018-05-07T22:00:40.403Z,93.30
2018-05-07T22:03:07.943Z,93.30
2018-05-07T22:05:35.441Z,93.60
2018-05-07T22:08:02.983Z,94.00
2018-05-07T22:10:30.493Z,93.90
2018-05-07T22:12:58.758Z,94.00
2018-05-07T22:15:27.044Z,94.30
2018-05-07T22:17:54.619Z,94.20
2018-05-07T22:20:22.918Z,94.30
2018-05-07T22:22:50.416Z,94.30
2018-05-07T22:25:17.953Z,94.70
2018-05-07T22:27:45.460Z,94.70
2018-05-07T22:30:13.738Z,94.90
2018-05-07T22:32:41.261Z,94.90
2018-05-07T22:35:08.790Z,95.20
2018-05-07T22:37:36.298Z,95.20
2018-05-07T22:40:03.857Z,95.40
2018-05-07T22:42:31.450Z,95.50
2018-05-07T22:44:58.951Z,95.60
2018-05-07T22:47:26.470Z,95.80
2018-05-07T22:49:54.750Z,95.80
2018-05-07T22:52:23.105Z,95.80
2018-05-07T22:54:50.585Z,95.80
2018-05-07T22:57:18.951Z,96.00
2018-05-07T22:59:46.498Z,96.00
2018-05-07T23:02:14.030Z,96.10
2018-05-07T23:04:41.537Z,96.20
2018-05-07T23:07:09.810Z,96.40
2018-05-07T23:09:37.341Z,96.40
2018-05-07T23:12:04.837Z,96.30
2018-05-07T23:14:32.362Z,96.50
2018-05-07T23:16:59.903Z,96.70
2018-05-07T23:19:27.418Z,96.70
2018-05-07T23:21:55.757Z,97.00
2018-05-07T23:24:23.293Z,97.00
2018-05-07T23:26:50.794Z,96.90
2018-05-07T23:29:18.358Z,96.90
2018-05-07T23:31:45.882Z,96.80
2018-05-07T23:34:13.398Z,96.90
2018-05-07T23:36:41.675Z,97.00
2018-05-07T23:39:09.198Z,97.00
2018-05-07T23:41:36.713Z,97.20
2018-05-07T23:44:04.240Z,97.20
2018-05-07T23:46:31.775Z,96.50
2018-05-07T23:48:59.283Z,96.70
2018-05-07T23:51:26.834Z,96.50
2018-05-07T23:53:55.135Z,96.80
2018-05-07T23:56:22.655Z,96.80
2018-05-07T23:58:50.159Z,96.50
